sensor_id;sensor_type;location;lat;lon;timestamp;temperature;humidity
59660;DHT22;45534;52.690;6.268;2023-02-12T00:02:16;5.80;99.90
59660;DHT22;45534;52.690;6.268;2023-02-12T00:04:43;5.70;99.90
59660;DHT22;45534;52.690;6.268;2023-02-12T00:07:09;5.70;99.90
59660;DHT22;45534;52.690;6.268;2023-02-12T00:09:37;5.60;99.90
59660;DHT22;45534;52.690;6.268;2023-02-12T00:12:03;5.60;99.90
59660;DHT22;45534;52.690;6.268;2023-02-12T00:14:29;5.60;99.90
59660;DHT22;45534;52.690;6.268;2023-02-12T00:16:55;5.60;99.90
59660;DHT22;45534;52.690;6.268;2023-02-12T00:19:21;5.50;99.90
59660;DHT22;45534;52.690;6.268;2023-02-12T00:21:47;5.50;99.90
59660;DHT22;45534;52.690;6.268;2023-02-12T00:24:13;5.50;99.90
59660;DHT22;45534;52.690;6.268;2023-02-12T00:26:38;5.50;99.90
59660;DHT22;45534;52.690;6.268;2023-02-12T00:29:04;5.40;99.90
59660;DHT22;45534;52.690;6.268;2023-02-12T00:31:30;5.40;99.90
59660;DHT22;45534;52.690;6.268;2023-02-12T00:33:58;5.40;99.90
59660;DHT22;45534;52.690;6.268;2023-02-12T00:36:26;5.30;99.90
59660;DHT22;45534;52.690;6.268;2023-02-12T00:38:54;5.30;99.90
59660;DHT22;45534;52.690;6.268;2023-02-12T00:41:20;5.30;99.90
59660;DHT22;45534;52.690;6.268;2023-02-12T00:43:47;5.30;99.90
59660;DHT22;45534;52.690;6.268;2023-02-12T00:46:13;5.30;99.90
59660;DHT22;45534;52.690;6.268;2023-02-12T00:48:39;5.20;99.90
59660;DHT22;45534;52.690;6.268;2023-02-12T00:51:05;5.20;99.90
59660;DHT22;45534;52.690;6.268;2023-02-12T00:53:32;5.20;99.90
59660;DHT22;45534;52.690;6.268;2023-02-12T00:55:58;5.20;99.90
59660;DHT22;45534;52.690;6.268;2023-02-12T00:58:24;5.10;99.90
59660;DHT22;45534;52.690;6.268;2023-02-12T01:00:50;5.10;99.90
59660;DHT22;45534;52.690;6.268;2023-02-12T01:03:15;5.10;99.90
59660;DHT22;45534;52.690;6.268;2023-02-12T01:05:41;5.10;99.90
59660;DHT22;45534;52.690;6.268;2023-02-12T01:08:07;5.00;99.90
59660;DHT22;45534;52.690;6.268;2023-02-12T01:10:35;5.00;99.90
59660;DHT22;45534;52.690;6.268;2023-02-12T01:13:01;5.00;99.90
59660;DHT22;45534;52.690;6.268;2023-02-12T01:15:26;4.90;99.90
59660;DHT22;45534;52.690;6.268;2023-02-12T01:17:52;4.90;99.90
59660;DHT22;45534;52.690;6.268;2023-02-12T01:20:20;4.90;99.90
59660;DHT22;45534;52.690;6.268;2023-02-12T01:22:46;4.90;99.90
59660;DHT22;45534;52.690;6.268;2023-02-12T01:25:12;4.90;99.90
59660;DHT22;45534;52.690;6.268;2023-02-12T01:27:38;4.90;99.90
59660;DHT22;45534;52.690;6.268;2023-02-12T01:30:06;5.00;99.90
59660;DHT22;45534;52.690;6.268;2023-02-12T01:32:33;5.00;99.90
59660;DHT22;45534;52.690;6.268;2023-02-12T01:34:59;5.00;99.90
59660;DHT22;45534;52.690;6.268;2023-02-12T01:37:24;5.00;99.90
59660;DHT22;45534;52.690;6.268;2023-02-12T01:39:50;5.00;99.90
59660;DHT22;45534;52.690;6.268;2023-02-12T01:42:16;5.00;99.90
59660;DHT22;45534;52.690;6.268;2023-02-12T01:47:36;5.00;99.90
59660;DHT22;45534;52.690;6.268;2023-02-12T01:50:02;5.00;99.90
59660;DHT22;45534;52.690;6.268;2023-02-12T01:52:31;5.00;99.90
59660;DHT22;45534;52.690;6.268;2023-02-12T01:55:01;4.90;99.90
59660;DHT22;45534;52.690;6.268;2023-02-12T01:57:33;4.90;99.90
59660;DHT22;45534;52.690;6.268;2023-02-12T02:00:01;4.90;99.90
59660;DHT22;45534;52.690;6.268;2023-02-12T02:02:28;5.00;99.90
59660;DHT22;45534;52.690;6.268;2023-02-12T02:04:59;4.90;99.90
59660;DHT22;45534;52.690;6.268;2023-02-12T02:07:26;5.00;99.90
59660;DHT22;45534;52.690;6.268;2023-02-12T02:09:52;4.90;99.90
59660;DHT22;45534;52.690;6.268;2023-02-12T02:12:18;4.90;99.90
59660;DHT22;45534;52.690;6.268;2023-02-12T02:15:03;5.00;99.90
59660;DHT22;45534;52.690;6.268;2023-02-12T02:38:56;5.00;99.90
59660;DHT22;45534;52.690;6.268;2023-02-12T02:41:27;5.00;99.90
59660;DHT22;45534;52.690;6.268;2023-02-12T02:43:55;5.00;99.90
59660;DHT22;45534;52.690;6.268;2023-02-12T02:48:51;5.00;99.90
59660;DHT22;45534;52.690;6.268;2023-02-12T02:51:26;5.00;99.90
59660;DHT22;45534;52.690;6.268;2023-02-12T02:56:32;5.00;99.90
59660;DHT22;45534;52.690;6.268;2023-02-12T02:59:22;4.90;99.90
59660;DHT22;45534;52.690;6.268;2023-02-12T03:01:51;4.90;99.90
59660;DHT22;45534;52.690;6.268;2023-02-12T03:07:34;4.90;99.90
59660;DHT22;45534;52.690;6.268;2023-02-12T03:10:04;4.80;99.90
59660;DHT22;45534;52.690;6.268;2023-02-12T03:12:37;4.80;99.90
59660;DHT22;45534;52.690;6.268;2023-02-12T03:15:13;4.80;99.90
59660;DHT22;45534;52.690;6.268;2023-02-12T03:17:46;4.80;99.90
59660;DHT22;45534;52.690;6.268;2023-02-12T03:20:17;4.80;99.90
59660;DHT22;45534;52.690;6.268;2023-02-12T03:23:09;4.70;99.90
59660;DHT22;45534;52.690;6.268;2023-02-12T03:25:37;4.70;99.90
59660;DHT22;45534;52.690;6.268;2023-02-12T03:28:16;4.70;99.90
59660;DHT22;45534;52.690;6.268;2023-02-12T03:38:51;4.70;99.90
59660;DHT22;45534;52.690;6.268;2023-02-12T03:41:25;4.70;99.90
59660;DHT22;45534;52.690;6.268;2023-02-12T03:49:10;4.60;99.90
59660;DHT22;45534;52.690;6.268;2023-02-12T03:51:38;4.60;99.90
59660;DHT22;45534;52.690;6.268;2023-02-12T03:54:07;4.50;99.90
59660;DHT22;45534;52.690;6.268;2023-02-12T03:59:05;4.50;99.90
59660;DHT22;45534;52.690;6.268;2023-02-12T04:01:32;4.50;99.90
59660;DHT22;45534;52.690;6.268;2023-02-12T04:04:00;4.50;99.90
59660;DHT22;45534;52.690;6.268;2023-02-12T04:06:28;4.50;99.90
59660;DHT22;45534;52.690;6.268;2023-02-12T04:08:57;4.50;99.90
59660;DHT22;45534;52.690;6.268;2023-02-12T04:19:33;4.30;99.90
59660;DHT22;45534;52.690;6.268;2023-02-12T04:24:48;4.20;99.90
59660;DHT22;45534;52.690;6.268;2023-02-12T04:30:08;4.10;99.90
59660;DHT22;45534;52.690;6.268;2023-02-12T04:32:51;4.10;99.90
59660;DHT22;45534;52.690;6.268;2023-02-12T04:35:45;4.10;99.90
59660;DHT22;45534;52.690;6.268;2023-02-12T04:38:22;4.10;99.90
59660;DHT22;45534;52.690;6.268;2023-02-12T04:40:51;4.00;99.90
59660;DHT22;45534;52.690;6.268;2023-02-12T04:43:31;4.00;99.90
59660;DHT22;45534;52.690;6.268;2023-02-12T04:45:59;4.00;99.90
59660;DHT22;45534;52.690;6.268;2023-02-12T04:48:25;4.00;99.90
59660;DHT22;45534;52.690;6.268;2023-02-12T04:50:50;4.00;99.90
59660;DHT22;45534;52.690;6.268;2023-02-12T04:53:16;4.00;99.90
59660;DHT22;45534;52.690;6.268;2023-02-12T04:55:42;4.00;99.90
59660;DHT22;45534;52.690;6.268;2023-02-12T04:58:08;4.10;99.90
59660;DHT22;45534;52.690;6.268;2023-02-12T05:00:34;4.10;99.90
59660;DHT22;45534;52.690;6.268;2023-02-12T05:03:00;4.00;99.90
59660;DHT22;45534;52.690;6.268;2023-02-12T05:05:26;4.00;99.90
59660;DHT22;45534;52.690;6.268;2023-02-12T05:07:52;4.00;99.90
59660;DHT22;45534;52.690;6.268;2023-02-12T05:10:17;4.00;99.90
59660;DHT22;45534;52.690;6.268;2023-02-12T05:12:43;4.00;99.90
59660;DHT22;45534;52.690;6.268;2023-02-12T05:15:09;4.00;99.90
59660;DHT22;45534;52.690;6.268;2023-02-12T05:17:35;4.00;99.90
59660;DHT22;45534;52.690;6.268;2023-02-12T05:20:00;4.00;99.90
59660;DHT22;45534;52.690;6.268;2023-02-12T05:22:26;4.10;99.90
59660;DHT22;45534;52.690;6.268;2023-02-12T05:24:52;4.10;99.90
59660;DHT22;45534;52.690;6.268;2023-02-12T05:27:17;4.10;99.90
59660;DHT22;45534;52.690;6.268;2023-02-12T05:29:43;4.10;99.90
59660;DHT22;45534;52.690;6.268;2023-02-12T05:32:09;4.10;99.90
59660;DHT22;45534;52.690;6.268;2023-02-12T05:34:35;4.10;99.90
59660;DHT22;45534;52.690;6.268;2023-02-12T05:37:01;4.10;99.90
59660;DHT22;45534;52.690;6.268;2023-02-12T05:39:30;4.10;99.90
59660;DHT22;45534;52.690;6.268;2023-02-12T05:41:55;4.10;99.90
59660;DHT22;45534;52.690;6.268;2023-02-12T05:44:21;4.20;99.90
59660;DHT22;45534;52.690;6.268;2023-02-12T05:46:47;4.20;99.90
59660;DHT22;45534;52.690;6.268;2023-02-12T05:49:12;4.10;99.90
59660;DHT22;45534;52.690;6.268;2023-02-12T05:51:38;4.20;99.90
59660;DHT22;45534;52.690;6.268;2023-02-12T05:54:05;4.20;99.90
59660;DHT22;45534;52.690;6.268;2023-02-12T05:56:36;4.20;99.90
59660;DHT22;45534;52.690;6.268;2023-02-12T05:59:05;4.20;99.90
59660;DHT22;45534;52.690;6.268;2023-02-12T06:01:37;4.20;99.90
59660;DHT22;45534;52.690;6.268;2023-02-12T06:04:06;4.20;99.90
59660;DHT22;45534;52.690;6.268;2023-02-12T06:06:32;4.30;99.90
59660;DHT22;45534;52.690;6.268;2023-02-12T06:08:59;4.30;99.90
59660;DHT22;45534;52.690;6.268;2023-02-12T06:11:25;4.30;99.90
59660;DHT22;45534;52.690;6.268;2023-02-12T06:13:52;4.40;99.90
59660;DHT22;45534;52.690;6.268;2023-02-12T06:16:20;4.40;99.90
59660;DHT22;45534;52.690;6.268;2023-02-12T06:18:46;4.40;99.90
59660;DHT22;45534;52.690;6.268;2023-02-12T06:21:12;4.40;99.90
59660;DHT22;45534;52.690;6.268;2023-02-12T06:23:38;4.50;99.90
59660;DHT22;45534;52.690;6.268;2023-02-12T06:26:04;4.50;99.90
59660;DHT22;45534;52.690;6.268;2023-02-12T06:28:30;4.50;99.90
59660;DHT22;45534;52.690;6.268;2023-02-12T06:30:55;4.50;99.90
59660;DHT22;45534;52.690;6.268;2023-02-12T06:33:21;4.50;99.90
59660;DHT22;45534;52.690;6.268;2023-02-12T06:35:47;4.50;99.90
59660;DHT22;45534;52.690;6.268;2023-02-12T06:38:13;4.60;99.90
59660;DHT22;45534;52.690;6.268;2023-02-12T06:40:39;4.60;99.90
59660;DHT22;45534;52.690;6.268;2023-02-12T06:43:05;4.60;99.90
59660;DHT22;45534;52.690;6.268;2023-02-12T06:45:32;4.60;99.90
59660;DHT22;45534;52.690;6.268;2023-02-12T06:47:57;4.70;99.90
59660;DHT22;45534;52.690;6.268;2023-02-12T06:50:23;4.70;99.90
59660;DHT22;45534;52.690;6.268;2023-02-12T06:52:49;4.70;99.90
59660;DHT22;45534;52.690;6.268;2023-02-12T06:55:15;4.80;99.90
59660;DHT22;45534;52.690;6.268;2023-02-12T06:57:41;4.80;99.90
59660;DHT22;45534;52.690;6.268;2023-02-12T07:00:08;4.80;99.90
59660;DHT22;45534;52.690;6.268;2023-02-12T07:02:33;4.80;99.90
59660;DHT22;45534;52.690;6.268;2023-02-12T07:04:59;4.90;99.90
59660;DHT22;45534;52.690;6.268;2023-02-12T07:07:25;4.90;99.90
59660;DHT22;45534;52.690;6.268;2023-02-12T07:09:50;4.90;99.90
59660;DHT22;45534;52.690;6.268;2023-02-12T07:12:16;4.90;99.90
59660;DHT22;45534;52.690;6.268;2023-02-12T07:14:42;5.00;99.90
59660;DHT22;45534;52.690;6.268;2023-02-12T07:17:07;5.00;99.90
59660;DHT22;45534;52.690;6.268;2023-02-12T07:19:34;5.10;99.90
59660;DHT22;45534;52.690;6.268;2023-02-12T07:22:00;5.10;99.90
59660;DHT22;45534;52.690;6.268;2023-02-12T07:24:26;5.10;99.90
59660;DHT22;45534;52.690;6.268;2023-02-12T07:26:52;5.10;99.90
59660;DHT22;45534;52.690;6.268;2023-02-12T07:29:18;5.20;99.90
59660;DHT22;45534;52.690;6.268;2023-02-12T07:31:43;5.20;99.90
59660;DHT22;45534;52.690;6.268;2023-02-12T07:34:10;5.20;99.90
59660;DHT22;45534;52.690;6.268;2023-02-12T07:36:36;5.30;99.90
59660;DHT22;45534;52.690;6.268;2023-02-12T07:39:02;5.30;99.90
59660;DHT22;45534;52.690;6.268;2023-02-12T07:41:30;5.30;99.90
59660;DHT22;45534;52.690;6.268;2023-02-12T07:44:02;5.30;99.90
59660;DHT22;45534;52.690;6.268;2023-02-12T07:46:33;5.40;99.90
59660;DHT22;45534;52.690;6.268;2023-02-12T07:49:02;5.40;99.90
59660;DHT22;45534;52.690;6.268;2023-02-12T07:51:30;5.40;99.90
59660;DHT22;45534;52.690;6.268;2023-02-12T07:53:57;5.40;99.90
59660;DHT22;45534;52.690;6.268;2023-02-12T07:56:25;5.50;99.90
59660;DHT22;45534;52.690;6.268;2023-02-12T07:58:55;5.50;99.90
59660;DHT22;45534;52.690;6.268;2023-02-12T08:01:30;5.50;99.90
59660;DHT22;45534;52.690;6.268;2023-02-12T08:04:19;5.50;99.90
59660;DHT22;45534;52.690;6.268;2023-02-12T08:06:47;5.60;99.90
59660;DHT22;45534;52.690;6.268;2023-02-12T08:09:16;5.60;99.90
59660;DHT22;45534;52.690;6.268;2023-02-12T08:11:43;5.60;99.90
59660;DHT22;45534;52.690;6.268;2023-02-12T08:14:15;5.70;99.90
59660;DHT22;45534;52.690;6.268;2023-02-12T08:16:42;5.70;99.90
59660;DHT22;45534;52.690;6.268;2023-02-12T08:19:08;5.70;99.90
59660;DHT22;45534;52.690;6.268;2023-02-12T08:21:34;5.70;99.90
59660;DHT22;45534;52.690;6.268;2023-02-12T08:24:01;5.80;99.90
59660;DHT22;45534;52.690;6.268;2023-02-12T08:26:32;5.80;99.90
59660;DHT22;45534;52.690;6.268;2023-02-12T08:29:15;5.90;99.90
59660;DHT22;45534;52.690;6.268;2023-02-12T08:31:44;5.90;99.90
59660;DHT22;45534;52.690;6.268;2023-02-12T08:34:24;5.90;99.90
59660;DHT22;45534;52.690;6.268;2023-02-12T08:36:51;6.00;99.90
59660;DHT22;45534;52.690;6.268;2023-02-12T08:39:23;6.10;99.90
59660;DHT22;45534;52.690;6.268;2023-02-12T08:41:49;6.10;99.90
59660;DHT22;45534;52.690;6.268;2023-02-12T08:44:17;6.10;99.90
59660;DHT22;45534;52.690;6.268;2023-02-12T08:46:45;6.10;99.90
59660;DHT22;45534;52.690;6.268;2023-02-12T08:49:13;6.20;99.90
59660;DHT22;45534;52.690;6.268;2023-02-12T08:51:42;6.20;99.90
59660;DHT22;45534;52.690;6.268;2023-02-12T08:54:11;6.20;99.90
59660;DHT22;45534;52.690;6.268;2023-02-12T08:56:37;6.30;99.90
59660;DHT22;45534;52.690;6.268;2023-02-12T08:59:04;6.30;99.90
59660;DHT22;45534;52.690;6.268;2023-02-12T09:01:32;6.40;99.90
59660;DHT22;45534;52.690;6.268;2023-02-12T09:03:58;6.40;99.90
59660;DHT22;45534;52.690;6.268;2023-02-12T09:06:25;6.40;99.90
59660;DHT22;45534;52.690;6.268;2023-02-12T09:08:54;6.50;99.90
59660;DHT22;45534;52.690;6.268;2023-02-12T09:11:22;6.50;99.90
59660;DHT22;45534;52.690;6.268;2023-02-12T09:13:51;6.50;99.90
59660;DHT22;45534;52.690;6.268;2023-02-12T09:16:17;6.60;99.90
59660;DHT22;45534;52.690;6.268;2023-02-12T09:18:43;6.70;99.90
59660;DHT22;45534;52.690;6.268;2023-02-12T09:21:14;6.70;99.90
59660;DHT22;45534;52.690;6.268;2023-02-12T09:23:42;6.70;99.90
59660;DHT22;45534;52.690;6.268;2023-02-12T09:26:10;6.70;99.90
59660;DHT22;45534;52.690;6.268;2023-02-12T09:28:37;6.80;99.90
59660;DHT22;45534;52.690;6.268;2023-02-12T09:31:05;6.80;99.90
59660;DHT22;45534;52.690;6.268;2023-02-12T09:33:30;6.80;99.90
59660;DHT22;45534;52.690;6.268;2023-02-12T09:36:04;6.90;99.90
59660;DHT22;45534;52.690;6.268;2023-02-12T09:38:29;6.80;99.90
59660;DHT22;45534;52.690;6.268;2023-02-12T09:52:25;7.10;99.90
59660;DHT22;45534;52.690;6.268;2023-02-12T09:54:51;7.10;99.90
59660;DHT22;45534;52.690;6.268;2023-02-12T09:57:35;7.20;99.90
59660;DHT22;45534;52.690;6.268;2023-02-12T10:02:40;7.20;99.90
59660;DHT22;45534;52.690;6.268;2023-02-12T10:05:30;7.20;99.90
59660;DHT22;45534;52.690;6.268;2023-02-12T10:10:46;7.30;99.90
59660;DHT22;45534;52.690;6.268;2023-02-12T10:19:00;7.50;99.90
59660;DHT22;45534;52.690;6.268;2023-02-12T10:24:40;7.60;99.90
59660;DHT22;45534;52.690;6.268;2023-02-12T10:27:15;7.70;99.90
59660;DHT22;45534;52.690;6.268;2023-02-12T10:29:43;7.70;99.90
59660;DHT22;45534;52.690;6.268;2023-02-12T10:32:19;7.80;99.90
59660;DHT22;45534;52.690;6.268;2023-02-12T10:34:45;7.90;99.90
59660;DHT22;45534;52.690;6.268;2023-02-12T10:40:05;8.00;99.90
59660;DHT22;45534;52.690;6.268;2023-02-12T10:42:41;8.00;99.90
59660;DHT22;45534;52.690;6.268;2023-02-12T10:45:16;8.00;99.90
59660;DHT22;45534;52.690;6.268;2023-02-12T10:47:43;8.10;99.90
59660;DHT22;45534;52.690;6.268;2023-02-12T10:53:01;8.20;99.90
59660;DHT22;45534;52.690;6.268;2023-02-12T10:55:34;8.30;99.90
59660;DHT22;45534;52.690;6.268;2023-02-12T10:58:02;8.30;99.90
59660;DHT22;45534;52.690;6.268;2023-02-12T11:00:29;8.40;99.90
59660;DHT22;45534;52.690;6.268;2023-02-12T11:05:39;8.50;99.90
59660;DHT22;45534;52.690;6.268;2023-02-12T11:08:06;8.60;99.90
59660;DHT22;45534;52.690;6.268;2023-02-12T11:10:37;8.60;99.90
59660;DHT22;45534;52.690;6.268;2023-02-12T11:13:03;8.70;99.90
59660;DHT22;45534;52.690;6.268;2023-02-12T11:15:56;8.70;99.90
59660;DHT22;45534;52.690;6.268;2023-02-12T11:18:32;8.70;99.90
59660;DHT22;45534;52.690;6.268;2023-02-12T11:21:09;8.80;99.90
59660;DHT22;45534;52.690;6.268;2023-02-12T11:23:41;8.80;99.90
59660;DHT22;45534;52.690;6.268;2023-02-12T11:31:24;9.00;99.90
59660;DHT22;45534;52.690;6.268;2023-02-12T11:34:13;9.00;99.90
59660;DHT22;45534;52.690;6.268;2023-02-12T11:36:42;9.00;99.90
59660;DHT22;45534;52.690;6.268;2023-02-12T11:41:55;9.00;99.90
59660;DHT22;45534;52.690;6.268;2023-02-12T11:44:28;9.00;99.90
59660;DHT22;45534;52.690;6.268;2023-02-12T11:47:01;9.00;99.90
59660;DHT22;45534;52.690;6.268;2023-02-12T11:49:36;9.10;99.90
59660;DHT22;45534;52.690;6.268;2023-02-12T11:52:03;9.10;99.90
59660;DHT22;45534;52.690;6.268;2023-02-12T11:54:40;9.10;99.90
59660;DHT22;45534;52.690;6.268;2023-02-12T11:57:06;9.10;99.90
59660;DHT22;45534;52.690;6.268;2023-02-12T11:59:37;9.20;99.90
59660;DHT22;45534;52.690;6.268;2023-02-12T12:02:18;9.20;99.90
59660;DHT22;45534;52.690;6.268;2023-02-12T12:04:48;9.10;99.90
59660;DHT22;45534;52.690;6.268;2023-02-12T12:07:24;9.10;99.90
59660;DHT22;45534;52.690;6.268;2023-02-12T12:10:16;9.10;99.90
59660;DHT22;45534;52.690;6.268;2023-02-12T12:12:51;9.10;99.90
59660;DHT22;45534;52.690;6.268;2023-02-12T12:15:21;9.10;99.90
59660;DHT22;45534;52.690;6.268;2023-02-12T12:24:10;9.20;99.90
59660;DHT22;45534;52.690;6.268;2023-02-12T12:26:41;9.20;99.90
59660;DHT22;45534;52.690;6.268;2023-02-12T12:29:17;9.20;99.90
59660;DHT22;45534;52.690;6.268;2023-02-12T12:31:49;9.30;99.90
59660;DHT22;45534;52.690;6.268;2023-02-12T12:34:24;9.30;99.90
59660;DHT22;45534;52.690;6.268;2023-02-12T12:42:17;9.40;99.90
59660;DHT22;45534;52.690;6.268;2023-02-12T12:49:53;9.50;99.90
59660;DHT22;45534;52.690;6.268;2023-02-12T12:58:19;9.60;99.90
59660;DHT22;45534;52.690;6.268;2023-02-12T13:06:25;9.70;99.90
59660;DHT22;45534;52.690;6.268;2023-02-12T13:17:22;9.50;99.90
59660;DHT22;45534;52.690;6.268;2023-02-12T13:25:27;9.40;99.90
59660;DHT22;45534;52.690;6.268;2023-02-12T13:27:58;9.30;99.90
59660;DHT22;45534;52.690;6.268;2023-02-12T13:30:35;9.30;99.90
59660;DHT22;45534;52.690;6.268;2023-02-12T13:33:26;9.30;99.90
59660;DHT22;45534;52.690;6.268;2023-02-12T13:35:56;9.30;99.90
59660;DHT22;45534;52.690;6.268;2023-02-12T13:38:29;9.20;99.90
59660;DHT22;45534;52.690;6.268;2023-02-12T13:41:00;9.20;99.90
59660;DHT22;45534;52.690;6.268;2023-02-12T13:48:53;9.10;99.90
59660;DHT22;45534;52.690;6.268;2023-02-12T13:51:30;9.10;99.90
59660;DHT22;45534;52.690;6.268;2023-02-12T13:56:55;9.10;99.90
59660;DHT22;45534;52.690;6.268;2023-02-12T14:01:58;9.00;99.90
59660;DHT22;45534;52.690;6.268;2023-02-12T14:07:12;9.00;99.90
59660;DHT22;45534;52.690;6.268;2023-02-12T14:09:42;9.00;99.90
59660;DHT22;45534;52.690;6.268;2023-02-12T14:12:32;9.00;99.90
59660;DHT22;45534;52.690;6.268;2023-02-12T14:15:15;8.90;99.90
59660;DHT22;45534;52.690;6.268;2023-02-12T14:18:02;8.90;99.90
59660;DHT22;45534;52.690;6.268;2023-02-12T14:20:46;8.90;99.90
59660;DHT22;45534;52.690;6.268;2023-02-12T14:23:39;8.90;99.90
59660;DHT22;45534;52.690;6.268;2023-02-12T14:26:15;8.90;99.90
59660;DHT22;45534;52.690;6.268;2023-02-12T14:28:51;8.90;99.90
59660;DHT22;45534;52.690;6.268;2023-02-12T14:33:48;8.90;99.90
59660;DHT22;45534;52.690;6.268;2023-02-12T14:41:38;8.80;99.90
59660;DHT22;45534;52.690;6.268;2023-02-12T14:46:56;8.80;99.90
59660;DHT22;45534;52.690;6.268;2023-02-12T14:49:38;8.80;99.90
59660;DHT22;45534;52.690;6.268;2023-02-12T14:57:35;8.80;99.90
59660;DHT22;45534;52.690;6.268;2023-02-12T15:05:30;8.80;99.90
59660;DHT22;45534;52.690;6.268;2023-02-12T15:08:00;8.70;99.90
59660;DHT22;45534;52.690;6.268;2023-02-12T15:10:31;8.80;99.90
59660;DHT22;45534;52.690;6.268;2023-02-12T15:15:52;8.80;99.90
59660;DHT22;45534;52.690;6.268;2023-02-12T15:21:27;8.70;99.90
59660;DHT22;45534;52.690;6.268;2023-02-12T15:24:08;8.70;99.90
59660;DHT22;45534;52.690;6.268;2023-02-12T15:26:47;8.70;99.90
59660;DHT22;45534;52.690;6.268;2023-02-12T15:29:20;8.70;99.90
59660;DHT22;45534;52.690;6.268;2023-02-12T15:31:50;8.60;99.90
59660;DHT22;45534;52.690;6.268;2023-02-12T15:34:20;8.60;99.90
59660;DHT22;45534;52.690;6.268;2023-02-12T15:36:47;8.60;99.90
59660;DHT22;45534;52.690;6.268;2023-02-12T15:39:20;8.60;99.90
59660;DHT22;45534;52.690;6.268;2023-02-12T15:41:47;8.50;99.90
59660;DHT22;45534;52.690;6.268;2023-02-12T15:44:21;8.60;99.90
59660;DHT22;45534;52.690;6.268;2023-02-12T15:49:35;8.50;99.90
59660;DHT22;45534;52.690;6.268;2023-02-12T15:52:17;8.50;99.90
59660;DHT22;45534;52.690;6.268;2023-02-12T15:54:45;8.50;99.90
59660;DHT22;45534;52.690;6.268;2023-02-12T15:57:18;8.40;99.90
59660;DHT22;45534;52.690;6.268;2023-02-12T15:59:52;8.40;99.90
59660;DHT22;45534;52.690;6.268;2023-02-12T16:02:28;8.40;99.90
59660;DHT22;45534;52.690;6.268;2023-02-12T16:04:55;8.40;99.90
59660;DHT22;45534;52.690;6.268;2023-02-12T16:07:22;8.40;99.90
59660;DHT22;45534;52.690;6.268;2023-02-12T16:09:49;8.40;99.90
59660;DHT22;45534;52.690;6.268;2023-02-12T16:12:19;8.40;99.90
59660;DHT22;45534;52.690;6.268;2023-02-12T16:14:53;8.30;99.90
59660;DHT22;45534;52.690;6.268;2023-02-12T16:17:31;8.30;99.90
59660;DHT22;45534;52.690;6.268;2023-02-12T16:19:58;8.30;99.90
59660;DHT22;45534;52.690;6.268;2023-02-12T16:22:30;8.30;99.90
59660;DHT22;45534;52.690;6.268;2023-02-12T16:24:56;8.30;99.90
59660;DHT22;45534;52.690;6.268;2023-02-12T16:27:33;8.30;99.90
59660;DHT22;45534;52.690;6.268;2023-02-12T16:30:20;8.30;99.90
59660;DHT22;45534;52.690;6.268;2023-02-12T16:32:47;8.30;99.90
59660;DHT22;45534;52.690;6.268;2023-02-12T16:37:43;8.20;99.90
59660;DHT22;45534;52.690;6.268;2023-02-12T16:40:19;8.20;99.90
59660;DHT22;45534;52.690;6.268;2023-02-12T16:47:50;8.20;99.90
59660;DHT22;45534;52.690;6.268;2023-02-12T16:50:17;8.20;99.90
59660;DHT22;45534;52.690;6.268;2023-02-12T16:52:43;8.20;99.90
59660;DHT22;45534;52.690;6.268;2023-02-12T16:55:13;8.10;99.90
59660;DHT22;45534;52.690;6.268;2023-02-12T16:57:40;8.10;99.90
59660;DHT22;45534;52.690;6.268;2023-02-12T17:00:07;8.10;99.90
59660;DHT22;45534;52.690;6.268;2023-02-12T17:02:33;8.00;99.90
59660;DHT22;45534;52.690;6.268;2023-02-12T17:05:01;8.10;99.90
59660;DHT22;45534;52.690;6.268;2023-02-12T17:07:30;8.00;99.90
59660;DHT22;45534;52.690;6.268;2023-02-12T17:09:56;8.00;99.90
59660;DHT22;45534;52.690;6.268;2023-02-12T17:12:22;8.00;99.90
59660;DHT22;45534;52.690;6.268;2023-02-12T17:14:48;8.00;99.90
59660;DHT22;45534;52.690;6.268;2023-02-12T17:17:14;8.00;99.90
59660;DHT22;45534;52.690;6.268;2023-02-12T17:19:40;8.00;99.90
59660;DHT22;45534;52.690;6.268;2023-02-12T17:22:07;7.90;99.90
59660;DHT22;45534;52.690;6.268;2023-02-12T17:24:40;7.90;99.90
59660;DHT22;45534;52.690;6.268;2023-02-12T17:27:06;7.90;99.90
59660;DHT22;45534;52.690;6.268;2023-02-12T17:29:32;7.90;99.90
59660;DHT22;45534;52.690;6.268;2023-02-12T17:31:58;7.90;99.90
59660;DHT22;45534;52.690;6.268;2023-02-12T17:34:24;7.90;99.90
59660;DHT22;45534;52.690;6.268;2023-02-12T17:36:50;7.80;99.90
59660;DHT22;45534;52.690;6.268;2023-02-12T17:39:16;7.80;99.90
59660;DHT22;45534;52.690;6.268;2023-02-12T17:41:43;7.80;99.90
59660;DHT22;45534;52.690;6.268;2023-02-12T17:44:09;7.80;99.90
59660;DHT22;45534;52.690;6.268;2023-02-12T17:46:36;7.80;99.90
59660;DHT22;45534;52.690;6.268;2023-02-12T17:49:03;7.80;99.90
59660;DHT22;45534;52.690;6.268;2023-02-12T17:51:28;7.80;99.90
59660;DHT22;45534;52.690;6.268;2023-02-12T17:53:54;7.80;99.90
59660;DHT22;45534;52.690;6.268;2023-02-12T17:56:21;7.80;99.90
59660;DHT22;45534;52.690;6.268;2023-02-12T17:58:48;7.80;99.90
59660;DHT22;45534;52.690;6.268;2023-02-12T18:01:16;7.80;99.90
59660;DHT22;45534;52.690;6.268;2023-02-12T18:03:42;7.80;99.90
59660;DHT22;45534;52.690;6.268;2023-02-12T18:06:08;7.80;99.90
59660;DHT22;45534;52.690;6.268;2023-02-12T18:08:35;7.70;99.90
59660;DHT22;45534;52.690;6.268;2023-02-12T18:11:05;7.70;99.90
59660;DHT22;45534;52.690;6.268;2023-02-12T18:13:31;7.70;99.90
59660;DHT22;45534;52.690;6.268;2023-02-12T18:15:57;7.70;99.90
59660;DHT22;45534;52.690;6.268;2023-02-12T18:18:22;7.70;99.90
59660;DHT22;45534;52.690;6.268;2023-02-12T18:20:48;7.70;99.90
59660;DHT22;45534;52.690;6.268;2023-02-12T18:23:14;7.70;99.90
59660;DHT22;45534;52.690;6.268;2023-02-12T18:25:41;7.70;99.90
59660;DHT22;45534;52.690;6.268;2023-02-12T18:28:07;7.70;99.90
59660;DHT22;45534;52.690;6.268;2023-02-12T18:30:33;7.70;99.90
59660;DHT22;45534;52.690;6.268;2023-02-12T18:33:01;7.70;99.90
59660;DHT22;45534;52.690;6.268;2023-02-12T18:35:26;7.60;99.90
59660;DHT22;45534;52.690;6.268;2023-02-12T18:37:52;7.60;99.90
59660;DHT22;45534;52.690;6.268;2023-02-12T18:40:18;7.60;99.90
59660;DHT22;45534;52.690;6.268;2023-02-12T18:42:43;7.60;99.90
59660;DHT22;45534;52.690;6.268;2023-02-12T18:45:09;7.60;99.90
59660;DHT22;45534;52.690;6.268;2023-02-12T18:47:35;7.60;99.90
59660;DHT22;45534;52.690;6.268;2023-02-12T18:50:00;7.60;99.90
59660;DHT22;45534;52.690;6.268;2023-02-12T18:52:26;7.50;99.90
59660;DHT22;45534;52.690;6.268;2023-02-12T18:54:52;7.50;99.90
59660;DHT22;45534;52.690;6.268;2023-02-12T18:57:18;7.60;99.90
59660;DHT22;45534;52.690;6.268;2023-02-12T18:59:44;7.50;99.90
59660;DHT22;45534;52.690;6.268;2023-02-12T19:02:12;7.50;99.90
59660;DHT22;45534;52.690;6.268;2023-02-12T19:04:38;7.50;99.90
59660;DHT22;45534;52.690;6.268;2023-02-12T19:07:04;7.50;99.90
59660;DHT22;45534;52.690;6.268;2023-02-12T19:09:30;7.50;99.90
59660;DHT22;45534;52.690;6.268;2023-02-12T19:11:57;7.50;99.90
59660;DHT22;45534;52.690;6.268;2023-02-12T19:14:24;7.50;99.90
59660;DHT22;45534;52.690;6.268;2023-02-12T19:16:51;7.50;99.90